createdAt,value
2018-02-25T00:00:51.898Z,81.54
2018-02-25T00:01:52.157Z,81.73
2018-02-25T00:02:51.862Z,81.82
2018-02-25T00:03:51.679Z,82.01
2018-02-25T00:04:51.988Z,81.92
2018-02-25T00:05:52.072Z,82.39
2018-02-25T00:06:52.082Z,82.39
2018-02-25T00:07:52.115Z,82.58
2018-02-25T00:08:52.179Z,82.1
2018-02-25T00:09:52.127Z,82.39
2018-02-25T00:10:52.705Z,82.39
2018-02-25T00:11:52.140Z,82.1
2018-02-25T00:12:52.671Z,82.1
2018-02-25T00:13:52.618Z,82.29
2018-02-25T00:14:52.583Z,82.01
2018-02-25T00:15:52.703Z,82.01
2018-02-25T00:16:53.008Z,81.92
2018-02-25T00:17:52.723Z,82.39
2018-02-25T00:18:52.654Z,82.76
2018-02-25T00:19:53.835Z,82.58
2018-02-25T00:20:53.498Z,82.76
2018-02-25T00:21:54.213Z,82.67
2018-02-25T00:22:53.776Z,82.67
2018-02-25T00:23:54.538Z,82.86
2018-02-25T00:24:54.792Z,82.67
2018-02-25T00:25:54.543Z,82.67
2018-02-25T00:26:54.730Z,82.58
2018-02-25T00:27:54.919Z,82.76
2018-02-25T00:28:55.245Z,82.39
2018-02-25T00:29:54.697Z,83.14
2018-02-25T00:30:55.805Z,83.14
2018-02-25T00:31:55.513Z,83.24
2018-02-25T00:32:55.615Z,83.61
2018-02-25T00:33:55.606Z,83.61
2018-02-25T00:34:55.903Z,83.71
2018-02-25T00:35:55.888Z,84.09
2018-02-25T00:36:55.315Z,84.37
2018-02-25T00:37:55.061Z,84.09
2018-02-25T00:38:55.895Z,84.28
2018-02-25T00:39:56.094Z,84.47
2018-02-25T00:40:56.096Z,84.18
2018-02-25T00:41:56.035Z,84.56
2018-02-25T00:42:56.295Z,84.37
2018-02-25T00:43:56.068Z,84.56
2018-02-25T00:44:56.270Z,84.94
2018-02-25T00:45:56.250Z,85.13
2018-02-25T00:46:56.362Z,85.31
2018-02-25T00:47:56.334Z,85.88
2018-02-25T00:48:55.878Z,85.41
2018-02-25T00:49:56.486Z,85.31
2018-02-25T00:50:55.454Z,85.88
2018-02-25T00:51:56.444Z,85.78
2018-02-25T00:52:55.767Z,85.78
2018-02-25T00:53:55.750Z,85.88
2018-02-25T00:54:55.496Z,86.44
2018-02-25T00:55:55.850Z,86.35
2018-02-25T00:56:56.042Z,86.35
2018-02-25T00:57:56.874Z,86.25
2018-02-25T00:58:56.170Z,86.44
2018-02-25T00:59:56.316Z,86.68
2018-02-25T01:00:56.554Z,86.72
2018-02-25T01:01:56.341Z,86.82
2018-02-25T01:02:56.008Z,86.68
2018-02-25T01:03:56.503Z,86.72
2018-02-25T01:04:57.236Z,87.1
2018-02-25T01:05:57.335Z,86.77
2018-02-25T01:06:56.871Z,87.34
2018-02-25T01:07:56.718Z,87.44
2018-02-25T01:08:56.906Z,87.44
2018-02-25T01:09:56.936Z,86.96
2018-02-25T01:10:56.974Z,87.29
2018-02-25T01:11:57.419Z,87.06
2018-02-25T01:12:57.339Z,86.87
2018-02-25T01:13:57.570Z,87.15
2018-02-25T01:14:57.211Z,87.25
2018-02-25T01:15:57.331Z,87.15
2018-02-25T01:16:57.601Z,87.25
2018-02-25T01:17:58.148Z,87.34
2018-02-25T01:18:57.693Z,87.44
2018-02-25T01:19:57.724Z,87.25
2018-02-25T01:20:57.665Z,87.25
2018-02-25T01:21:57.671Z,87.06
2018-02-25T01:22:57.753Z,87.53
2018-02-25T01:23:57.421Z,87.91
2018-02-25T01:24:57.491Z,87.91
2018-02-25T01:25:57.706Z,87.81
2018-02-25T01:26:57.932Z,87.91
2018-02-25T01:27:58.154Z,87.91
2018-02-25T01:28:58.157Z,87.91
2018-02-25T01:29:58.193Z,87.91
2018-02-25T01:30:58.520Z,87.81
2018-02-25T01:31:58.102Z,87.81
2018-02-25T01:32:58.412Z,87.72
2018-02-25T01:33:58.067Z,87.25
2018-02-25T01:34:58.026Z,87.25
2018-02-25T01:35:58.317Z,87.15
2018-02-25T01:36:58.264Z,87.44
2018-02-25T01:37:58.028Z,87.25
2018-02-25T01:38:58.685Z,87.34
2018-02-25T01:39:58.615Z,87.25
2018-02-25T01:40:58.533Z,87.15
2018-02-25T01:41:59.244Z,87.62
2018-02-25T01:42:58.913Z,87.25
2018-02-25T01:43:59.158Z,87.34
2018-02-25T01:44:58.851Z,87.34
2018-02-25T01:45:58.873Z,87.15
2018-02-25T01:46:58.886Z,88
2018-02-25T01:47:58.978Z,87.53
2018-02-25T01:48:59.160Z,88
2018-02-25T01:49:59.774Z,87.91
2018-02-25T01:50:59.462Z,87.72
2018-02-25T01:52:00.152Z,87.81
2018-02-25T01:53:00.034Z,87.53
2018-02-25T01:53:59.751Z,87.53
2018-02-25T01:54:59.896Z,87.72
2018-02-25T01:56:00.518Z,87.91
2018-02-25T01:57:00.560Z,88.28
2018-02-25T01:58:00.702Z,88.28
2018-02-25T01:59:00.434Z,88.47
2018-02-25T02:00:00.466Z,88.28
2018-02-25T02:01:01.119Z,88.1
2018-02-25T02:02:00.849Z,88.47
2018-02-25T02:03:01.463Z,88.76
2018-02-25T02:04:01.094Z,88.76
2018-02-25T02:05:01.077Z,88.57
2018-02-25T02:06:00.872Z,89.04
2018-02-25T02:07:01.341Z,89.13
2018-02-25T02:08:01.025Z,89.32
2018-02-25T02:09:01.544Z,89.51
2018-02-25T02:10:01.716Z,89.7
2018-02-25T02:11:02.185Z,89.51
2018-02-25T02:12:01.890Z,89.61
2018-02-25T02:13:01.284Z,89.61
2018-02-25T02:14:01.780Z,89.61
2018-02-25T02:15:01.624Z,89.42
2018-02-25T02:16:01.732Z,89.51
2018-02-25T02:17:01.983Z,89.13
2018-02-25T02:18:02.930Z,89.04
2018-02-25T02:19:02.281Z,89.23
2018-02-25T02:20:02.146Z,89.61
2018-02-25T02:21:02.413Z,89.51
2018-02-25T02:22:02.438Z,89.51
2018-02-25T02:23:02.780Z,89.79
2018-02-25T02:24:03.001Z,89.04
2018-02-25T02:25:02.943Z,89.04
2018-02-25T02:26:02.958Z,89.23
2018-02-25T02:27:02.908Z,89.13
2018-02-25T02:28:03.400Z,89.13
2018-02-25T02:29:03.606Z,89.04
2018-02-25T02:30:03.334Z,88.76
2018-02-25T02:31:03.488Z,88.57
2018-02-25T02:32:04.094Z,88.47
2018-02-25T02:33:04.494Z,88.47
2018-02-25T02:34:04.922Z,88.85
2018-02-25T02:35:05.000Z,89.13
2018-02-25T02:36:04.700Z,88.85
2018-02-25T02:37:05.077Z,89.79
2018-02-25T02:38:05.484Z,89.61
2018-02-25T02:39:05.315Z,89.98
2018-02-25T02:40:05.642Z,90.17
2018-02-25T02:41:05.343Z,90.26
2018-02-25T02:42:05.890Z,90.45
2018-02-25T02:43:06.167Z,91.49
2018-02-25T02:44:06.174Z,91.77
2018-02-25T02:45:06.184Z,91.86
2018-02-25T02:46:06.192Z,91.96
2018-02-25T02:47:06.211Z,91.77
2018-02-25T02:48:06.224Z,92.33
2018-02-25T02:49:06.262Z,93.09
2018-02-25T02:50:06.447Z,92.9
2018-02-25T02:51:07.102Z,92.99
2018-02-25T02:52:06.842Z,92.8
2018-02-25T02:53:07.367Z,93.28
2018-02-25T02:54:07.052Z,93.75
2018-02-25T02:55:07.410Z,93.65
2018-02-25T02:56:07.353Z,93.47
2018-02-25T02:57:07.365Z,93.84
2018-02-25T02:58:07.138Z,94.13
2018-02-25T02:59:07.414Z,94.13
2018-02-25T03:00:14.325Z,94.03
2018-02-25T03:01:14.185Z,94.41
2018-02-25T03:02:14.178Z,94.31
2018-02-25T03:03:13.964Z,94.31
2018-02-25T03:04:14.392Z,94.41
2018-02-25T03:05:13.950Z,94.69
2018-02-25T03:06:14.253Z,94.79
2018-02-25T03:07:14.250Z,94.5
2018-02-25T03:08:15.106Z,94.6
2018-02-25T03:09:14.808Z,94.5
2018-02-25T03:10:14.819Z,94.5
2018-02-25T03:11:14.819Z,94.79
2018-02-25T03:12:14.829Z,95.07
2018-02-25T03:13:14.964Z,94.6
2018-02-25T03:14:15.366Z,95.26
2018-02-25T03:15:15.537Z,95.16
2018-02-25T03:16:15.570Z,95.54
2018-02-25T03:17:15.553Z,95.45
2018-02-25T03:18:15.664Z,95.26
2018-02-25T03:19:16.035Z,95.07
2018-02-25T03:20:15.870Z,95.35
2018-02-25T03:21:16.161Z,95.16
2018-02-25T03:22:15.969Z,95.35
2018-02-25T03:23:15.924Z,94.69
2018-02-25T03:24:15.934Z,95.73
2018-02-25T03:25:16.643Z,95.35
2018-02-25T03:26:16.643Z,95.35
2018-02-25T03:27:16.644Z,96.11
2018-02-25T03:28:16.829Z,96.48
2018-02-25T03:29:16.793Z,96.3
2018-02-25T03:30:17.115Z,96.3
2018-02-25T03:31:17.059Z,96.11
2018-02-25T03:32:17.174Z,96.01
2018-02-25T03:33:17.553Z,96.3
2018-02-25T03:34:17.683Z,96.67
2018-02-25T03:35:17.946Z,96.58
2018-02-25T03:36:17.677Z,96.48
2018-02-25T03:37:18.351Z,96.01
2018-02-25T03:38:18.507Z,96.77
2018-02-25T03:39:18.520Z,96.58
2018-02-25T03:40:18.539Z,96.86
2018-02-25T03:41:18.935Z,97.05
2018-02-25T03:42:18.925Z,97.33
2018-02-25T03:43:19.041Z,97.33
2018-02-25T03:44:19.328Z,97.33
2018-02-25T03:45:19.271Z,97.61
2018-02-25T03:46:19.643Z,97.89
2018-02-25T03:47:20.088Z,97.99
2018-02-25T03:48:19.818Z,98.27
2018-02-25T03:49:20.236Z,98.36
2018-02-25T03:50:20.001Z,97.8
2018-02-25T03:51:20.437Z,98.36
2018-02-25T03:52:20.809Z,98.27
2018-02-25T03:53:20.845Z,98.55
2018-02-25T03:54:20.845Z,98.36
2018-02-25T03:55:20.585Z,98.36
2018-02-25T03:56:21.657Z,98.18
2018-02-25T03:57:21.607Z,99.02
2018-02-25T03:58:21.263Z,99.21
2018-02-25T03:59:21.851Z,99.59
2018-02-25T04:00:38.065Z,99.78
2018-02-25T04:01:38.231Z,99.5
2018-02-25T04:02:38.289Z,99.87
2018-02-25T04:03:38.018Z,99.35
2018-02-25T04:04:38.303Z,99.73
2018-02-25T04:05:38.243Z,99.99
2018-02-25T04:06:38.549Z,99.54
2018-02-25T04:07:38.563Z,99.78
2018-02-25T04:08:38.926Z,98.97
2018-02-25T04:09:38.935Z,99.54
2018-02-25T04:10:39.507Z,99.44
2018-02-25T04:11:39.612Z,99.73
2018-02-25T04:12:39.992Z,99.99
2018-02-25T04:13:39.724Z,99.99
2018-02-25T04:14:40.934Z,99.99
2018-02-25T04:15:40.225Z,99.99
2018-02-25T04:16:40.153Z,99.99
2018-02-25T04:17:40.225Z,99.99
2018-02-25T04:18:40.238Z,99.99
2018-02-25T04:19:40.258Z,99.99
2018-02-25T04:20:40.288Z,99.99
2018-02-25T04:21:40.033Z,99.99
2018-02-25T04:22:40.400Z,99.99
2018-02-25T04:23:40.578Z,99.99
2018-02-25T04:24:40.455Z,99.99
2018-02-25T04:25:41.621Z,99.91
2018-02-25T04:26:40.976Z,99.99
2018-02-25T04:27:41.367Z,99.99
2018-02-25T04:28:41.396Z,99.99
2018-02-25T04:29:41.901Z,99.99
2018-02-25T04:30:41.895Z,99.99
2018-02-25T04:31:42.101Z,99.99
2018-02-25T04:32:42.223Z,99.99
2018-02-25T04:33:42.258Z,99.99
2018-02-25T04:34:42.412Z,99.99
2018-02-25T04:35:42.073Z,99.99
2018-02-25T04:36:42.728Z,99.99
2018-02-25T04:37:42.918Z,99.99
2018-02-25T04:38:43.182Z,99.99
2018-02-25T04:39:43.387Z,99.99
2018-02-25T04:40:43.400Z,99.99
2018-02-25T04:41:43.807Z,99.99
2018-02-25T04:42:43.833Z,99.99
2018-02-25T04:43:43.901Z,99.99
2018-02-25T04:44:43.584Z,99.99
2018-02-25T04:45:43.840Z,99.99
2018-02-25T04:46:44.209Z,99.99
2018-02-25T04:47:44.105Z,99.99
2018-02-25T04:48:44.497Z,99.99
2018-02-25T04:49:44.526Z,99.99
2018-02-25T04:50:44.703Z,99.99
2018-02-25T04:51:45.104Z,99.99
2018-02-25T04:52:44.557Z,99.99
2018-02-25T04:53:44.305Z,99.99
2018-02-25T04:54:45.017Z,99.99
2018-02-25T04:55:45.008Z,99.99
2018-02-25T04:56:45.443Z,99.99
2018-02-25T04:57:45.438Z,99.99
2018-02-25T04:58:45.591Z,99.99
2018-02-25T04:59:45.657Z,99.99
2018-02-25T05:00:45.638Z,99.99
2018-02-25T05:01:45.397Z,99.99
2018-02-25T05:02:45.650Z,99.99
2018-02-25T05:03:45.621Z,99.99
2018-02-25T05:04:45.827Z,99.99
2018-02-25T05:05:45.949Z,99.99
2018-02-25T05:06:45.911Z,99.99
2018-02-25T05:07:45.578Z,99.99
2018-02-25T05:08:45.612Z,99.99
2018-02-25T05:09:45.994Z,99.99
2018-02-25T05:10:46.276Z,99.99
2018-02-25T05:11:46.025Z,99.99
2018-02-25T05:12:46.514Z,99.99
2018-02-25T05:13:46.552Z,99.99
2018-02-25T05:14:46.280Z,99.99
2018-02-25T05:15:46.265Z,99.99
2018-02-25T05:16:46.866Z,99.99
2018-02-25T05:17:46.864Z,99.99
2018-02-25T05:18:46.610Z,99.99
2018-02-25T05:19:46.911Z,99.99
2018-02-25T05:20:46.842Z,99.99
2018-02-25T05:21:47.204Z,99.99
2018-02-25T05:22:47.093Z,99.99
2018-02-25T05:23:47.557Z,99.99
2018-02-25T05:24:47.923Z,99.99
2018-02-25T05:25:48.308Z,99.99
2018-02-25T05:26:48.696Z,99.99
2018-02-25T05:27:49.099Z,99.99
2018-02-25T05:28:48.816Z,99.99
2018-02-25T05:29:49.125Z,99.99
2018-02-25T05:30:49.186Z,99.99
2018-02-25T05:31:48.864Z,99.99
2018-02-25T05:32:49.158Z,99.99
2018-02-25T05:33:49.368Z,99.99
2018-02-25T05:34:49.760Z,99.99
2018-02-25T05:35:50.234Z,99.99
2018-02-25T05:36:50.365Z,99.99
2018-02-25T05:37:50.267Z,99.99
2018-02-25T05:38:50.064Z,99.99
2018-02-25T05:39:50.304Z,99.99
2018-02-25T05:40:50.434Z,99.99
2018-02-25T05:41:50.720Z,99.99
2018-02-25T05:42:51.128Z,99.99
2018-02-25T05:43:51.249Z,99.99
2018-02-25T05:44:51.281Z,99.99
2018-02-25T05:45:51.261Z,99.99
2018-02-25T05:46:51.269Z,99.99
2018-02-25T05:47:51.304Z,99.99
2018-02-25T05:48:51.317Z,99.99
2018-02-25T05:49:51.319Z,99.99
2018-02-25T05:50:51.475Z,99.99
2018-02-25T05:51:51.857Z,99.99
2018-02-25T05:52:51.730Z,99.99
2018-02-25T05:53:52.169Z,99.99
2018-02-25T05:54:52.530Z,99.99
2018-02-25T05:55:52.504Z,99.99
2018-02-25T05:56:52.497Z,99.99
2018-02-25T05:57:52.905Z,99.99
2018-02-25T05:58:53.277Z,99.99
2018-02-25T05:59:53.301Z,99.99
2018-02-25T06:00:53.323Z,99.99
2018-02-25T06:01:53.408Z,99.99
2018-02-25T06:02:53.327Z,99.99
2018-02-25T06:03:53.407Z,99.99
2018-02-25T06:04:53.811Z,99.99
2018-02-25T06:05:53.957Z,99.99
2018-02-25T06:06:53.825Z,99.99
2018-02-25T06:07:53.763Z,99.99
2018-02-25T06:08:54.235Z,99.99
2018-02-25T06:09:54.338Z,99.99
2018-02-25T06:10:53.858Z,99.99
2018-02-25T06:11:54.845Z,99.99
2018-02-25T06:12:54.762Z,99.99
2018-02-25T06:13:54.794Z,99.99
2018-02-25T06:14:54.758Z,99.99
2018-02-25T06:15:54.799Z,99.99
2018-02-25T06:16:54.927Z,99.99
2018-02-25T06:17:54.829Z,99.99
2018-02-25T06:18:54.823Z,99.99
2018-02-25T06:19:54.567Z,99.99
2018-02-25T06:20:54.987Z,99.99
2018-02-25T06:21:55.403Z,99.99
2018-02-25T06:22:55.357Z,99.99
2018-02-25T06:23:55.375Z,99.99
2018-02-25T06:24:55.512Z,99.99
2018-02-25T06:25:55.538Z,99.99
2018-02-25T06:26:55.556Z,99.99
2018-02-25T06:27:55.928Z,99.99
2018-02-25T06:28:56.133Z,99.99
2018-02-25T06:29:56.117Z,99.99
2018-02-25T06:30:56.166Z,99.99
2018-02-25T06:31:56.391Z,99.99
2018-02-25T06:32:56.155Z,99.99
2018-02-25T06:33:56.354Z,99.99
2018-02-25T06:34:56.455Z,99.99
2018-02-25T06:35:56.312Z,99.99
2018-02-25T06:36:56.307Z,99.99
2018-02-25T06:37:56.606Z,99.99
2018-02-25T06:38:56.636Z,99.99
2018-02-25T06:39:56.628Z,99.99
2018-02-25T06:40:56.657Z,99.99
2018-02-25T06:41:56.477Z,99.99
2018-02-25T06:42:57.063Z,99.99
2018-02-25T06:43:57.257Z,99.99
2018-02-25T06:44:57.423Z,99.99
2018-02-25T06:45:57.303Z,99.99
2018-02-25T06:46:57.111Z,99.99
2018-02-25T06:47:56.965Z,99.99
2018-02-25T06:48:56.883Z,99.99
2018-02-25T06:49:57.461Z,99.99
2018-02-25T06:50:57.169Z,99.99
2018-02-25T06:51:57.758Z,99.99
2018-02-25T06:52:57.450Z,99.99
2018-02-25T06:53:58.114Z,99.99
2018-02-25T06:54:57.869Z,99.99
2018-02-25T06:55:57.953Z,99.99
2018-02-25T06:56:58.679Z,99.99
2018-02-25T06:57:58.270Z,99.99
2018-02-25T06:58:58.216Z,99.99
2018-02-25T06:59:58.211Z,99.99
2018-02-25T07:00:58.112Z,99.99
2018-02-25T07:01:58.410Z,99.99
2018-02-25T07:02:58.268Z,99.99
2018-02-25T07:03:58.452Z,99.99
2018-02-25T07:04:58.290Z,99.99
2018-02-25T07:05:58.715Z,99.99
2018-02-25T07:06:58.713Z,99.99
2018-02-25T07:07:58.840Z,99.99
2018-02-25T07:08:58.821Z,99.99
2018-02-25T07:09:59.130Z,99.99
2018-02-25T07:10:59.147Z,99.99
2018-02-25T07:11:59.518Z,99.99
2018-02-25T07:12:59.589Z,99.99
2018-02-25T07:13:59.431Z,99.4
2018-02-25T07:14:59.272Z,99.87
2018-02-25T07:15:59.581Z,99.12
2018-02-25T07:16:59.328Z,99.02
2018-02-25T07:17:59.012Z,99.12
2018-02-25T07:18:59.659Z,98.74
2018-02-25T07:19:59.797Z,99.21
2018-02-25T07:20:59.528Z,98.18
2018-02-25T07:21:59.899Z,98.18
2018-02-25T07:23:00.201Z,97.89
2018-02-25T07:23:59.912Z,97.61
2018-02-25T07:25:00.032Z,97.14
2018-02-25T07:26:00.566Z,96.72
2018-02-25T07:27:00.066Z,96.77
2018-02-25T07:28:00.153Z,97.14
2018-02-25T07:28:59.856Z,96.58
2018-02-25T07:30:00.287Z,96.44
2018-02-25T07:31:00.624Z,96.53
2018-02-25T07:32:00.438Z,96.34
2018-02-25T07:33:00.221Z,96.06
2018-02-25T07:34:00.638Z,95.87
2018-02-25T07:35:01.235Z,95.21
2018-02-25T07:36:01.262Z,95.4
2018-02-25T07:37:01.517Z,94.74
2018-02-25T07:38:00.639Z,94.65
2018-02-25T07:39:01.294Z,94.08
2018-02-25T07:40:01.567Z,93.8
2018-02-25T07:41:01.383Z,93.7
2018-02-25T07:42:01.172Z,93.13
2018-02-25T07:43:01.541Z,93.04
2018-02-25T07:44:01.212Z,93.23
2018-02-25T07:45:02.562Z,92.85
2018-02-25T07:46:02.448Z,92.66
2018-02-25T07:47:02.565Z,92.47
2018-02-25T07:48:02.082Z,92.85
2018-02-25T07:49:01.965Z,93.13
2018-02-25T07:50:01.847Z,92.66
2018-02-25T07:51:02.223Z,91.63
2018-02-25T07:52:02.088Z,90.78
2018-02-25T07:53:02.852Z,88.65
2018-02-25T07:54:02.138Z,86.11
2018-02-25T07:55:02.412Z,83.98
2018-02-25T07:56:02.704Z,82.14
2018-02-25T07:57:02.427Z,79.3
2018-02-25T07:58:02.415Z,76.79
2018-02-25T07:59:02.198Z,74.66
2018-02-25T08:00:15.398Z,72.2
2018-02-25T08:01:02.494Z,69.78
2018-02-25T08:02:02.705Z,68.55
2018-02-25T08:03:02.428Z,67.85
2018-02-25T08:04:02.623Z,67.38
2018-02-25T08:05:03.391Z,67
2018-02-25T08:06:03.338Z,67.29
2018-02-25T08:07:03.676Z,67.91
2018-02-25T08:08:03.831Z,68.67
2018-02-25T08:09:03.931Z,68.82
2018-02-25T08:10:03.918Z,69.39
2018-02-25T08:11:04.072Z,69.3
2018-02-25T08:12:04.104Z,69.43
2018-02-25T08:13:04.130Z,69.09
2018-02-25T08:14:04.299Z,66.85
2018-02-25T08:15:04.544Z,64.67
2018-02-25T08:16:04.469Z,63.16
2018-02-25T08:17:04.207Z,62.72
2018-02-25T08:18:04.768Z,62.72
2018-02-25T08:19:04.862Z,61.77
2018-02-25T08:20:05.144Z,62.18
2018-02-25T08:21:05.294Z,61.05
2018-02-25T08:22:05.184Z,59.66
2018-02-25T08:23:05.615Z,60.03
2018-02-25T08:24:05.608Z,60.7
2018-02-25T08:25:05.602Z,60.22
2018-02-25T08:26:05.633Z,58.33
2018-02-25T08:27:05.675Z,57.67
2018-02-25T08:28:05.674Z,57.57
2018-02-25T08:29:05.685Z,56.91
2018-02-25T08:30:06.152Z,56.09
2018-02-25T08:31:06.391Z,55.52
2018-02-25T08:32:07.053Z,55
2018-02-25T08:33:07.048Z,52.76
2018-02-25T08:34:07.022Z,51.62
2018-02-25T08:35:07.034Z,51.24
2018-02-25T08:36:07.263Z,51.07
2018-02-25T08:37:07.133Z,50.24
2018-02-25T08:38:07.467Z,49.13
2018-02-25T08:39:07.471Z,47.11
2018-02-25T08:40:07.691Z,46.35
2018-02-25T08:41:07.240Z,47.52
2018-02-25T08:42:07.702Z,47.06
2018-02-25T08:43:07.742Z,46.33
2018-02-25T08:44:07.893Z,45.87
2018-02-25T08:45:07.894Z,45.42
2018-02-25T08:46:07.898Z,44.18
2018-02-25T08:47:07.929Z,41.99
2018-02-25T08:48:07.707Z,41.47
2018-02-25T08:49:09.151Z,42.04
2018-02-25T08:50:08.367Z,41.55
2018-02-25T08:51:08.645Z,41.81
2018-02-25T08:52:09.085Z,42.97
2018-02-25T08:53:10.107Z,42.97
2018-02-25T08:54:09.743Z,42.25
2018-02-25T08:55:09.718Z,42.28
2018-02-25T08:56:09.485Z,41.16
2018-02-25T08:57:10.342Z,40.51
2018-02-25T08:58:10.256Z,40.72
2018-02-25T08:59:09.798Z,39.4
2018-02-25T09:00:42.152Z,37.73
2018-02-25T09:01:42.271Z,35.64
2018-02-25T09:02:42.067Z,34.03
2018-02-25T09:03:42.421Z,33.73
2018-02-25T09:04:42.717Z,33.79
2018-02-25T09:05:43.240Z,33.58
2018-02-25T09:06:42.528Z,33.57
2018-02-25T09:07:42.795Z,34.23
2018-02-25T09:08:43.428Z,35.1
2018-02-25T09:09:42.957Z,34.33
2018-02-25T09:10:43.615Z,34.34
2018-02-25T09:11:43.992Z,33.58
2018-02-25T09:12:43.824Z,33.78
2018-02-25T09:13:43.757Z,33.5
2018-02-25T09:14:44.252Z,33.7
2018-02-25T09:15:44.150Z,34
2018-02-25T09:16:44.494Z,33.91
2018-02-25T09:17:44.294Z,32.95
2018-02-25T09:18:44.441Z,33.42
2018-02-25T09:19:44.206Z,33.44
2018-02-25T09:20:44.873Z,32.78
2018-02-25T09:21:45.252Z,32.58
2018-02-25T09:22:45.642Z,33.15
2018-02-25T09:23:45.744Z,32.03
2018-02-25T09:24:45.927Z,31.15
2018-02-25T09:25:46.058Z,32.41
2018-02-25T09:26:46.089Z,31.95
2018-02-25T09:27:45.841Z,31.85
2018-02-25T09:28:46.334Z,31.27
2018-02-25T09:29:46.754Z,31.01
2018-02-25T09:30:46.771Z,31.2
2018-02-25T09:31:46.792Z,30.15
2018-02-25T09:32:46.598Z,30.15
2018-02-25T09:33:46.919Z,30.13
2018-02-25T09:34:46.928Z,29.99
2018-02-25T09:35:47.002Z,31.5
2018-02-25T09:36:46.956Z,31.6
2018-02-25T09:37:47.060Z,31.5
2018-02-25T09:38:46.794Z,30.83
2018-02-25T09:39:47.481Z,31.42
2018-02-25T09:40:47.951Z,31.99
2018-02-25T09:41:48.146Z,31.53
2018-02-25T09:42:48.148Z,31.07
2018-02-25T09:43:48.349Z,30.4
2018-02-25T09:44:49.060Z,30.4
2018-02-25T09:45:48.946Z,30.51
2018-02-25T09:46:49.348Z,29.86
2018-02-25T09:47:49.579Z,29.46
2018-02-25T09:48:49.010Z,29.46
2018-02-25T09:49:49.030Z,29.92
2018-02-25T09:50:48.804Z,29.44
2018-02-25T09:51:49.098Z,29.72
2018-02-25T09:52:49.336Z,30.37
2018-02-25T09:53:49.428Z,30.85
2018-02-25T09:54:49.286Z,30.75
2018-02-25T09:55:49.224Z,30.37
2018-02-25T09:56:48.978Z,30.55
2018-02-25T09:57:49.458Z,30.46
2018-02-25T09:58:49.467Z,31.04
2018-02-25T09:59:49.496Z,31.05
2018-02-25T10:00:49.758Z,30.78
2018-02-25T10:01:49.786Z,29.91
2018-02-25T10:02:50.318Z,30.38
2018-02-25T10:03:49.614Z,30.02
2018-02-25T10:04:49.839Z,29.81
2018-02-25T10:05:49.921Z,29.33
2018-02-25T10:06:49.898Z,29.7
2018-02-25T10:07:49.886Z,29.7
2018-02-25T10:08:49.683Z,29.89
2018-02-25T10:09:49.976Z,29.99
2018-02-25T10:10:50.039Z,29.72
2018-02-25T10:11:50.046Z,29.91
2018-02-25T10:12:49.837Z,29.83
2018-02-25T10:13:49.870Z,29.57
2018-02-25T10:14:50.110Z,29.57
2018-02-25T10:15:50.686Z,29.11
2018-02-25T10:16:50.170Z,28.81
2018-02-25T10:17:50.209Z,28.55
2018-02-25T10:18:50.376Z,28.35
2018-02-25T10:19:50.148Z,28.15
2018-02-25T10:20:50.608Z,28.53
2018-02-25T10:21:50.446Z,28.35
2018-02-25T10:22:50.321Z,27.94
2018-02-25T10:23:50.398Z,28.98
2018-02-25T10:24:51.124Z,29.28
2018-02-25T10:25:50.832Z,29.38
2018-02-25T10:26:50.974Z,29.38
2018-02-25T10:27:51.653Z,28.91
2018-02-25T10:28:52.095Z,28.55
2018-02-25T10:29:52.161Z,28.75
2018-02-25T10:30:52.174Z,27.71
2018-02-25T10:31:52.203Z,27.61
2018-02-25T10:32:52.651Z,27.52
2018-02-25T10:33:52.644Z,27.52
2018-02-25T10:34:52.833Z,27.61
2018-02-25T10:35:52.844Z,26.64
2018-02-25T10:36:53.316Z,27.39
2018-02-25T10:37:53.306Z,27.39
2018-02-25T10:38:53.351Z,27.66
2018-02-25T10:39:53.122Z,28.42
2018-02-25T10:40:53.745Z,28.23
2018-02-25T10:41:53.663Z,28.15
2018-02-25T10:42:53.716Z,27.75
2018-02-25T10:43:53.407Z,28.41
2018-02-25T10:44:53.949Z,29.19
2018-02-25T10:45:53.758Z,28.7
2018-02-25T10:46:53.781Z,28.91
2018-02-25T10:47:53.811Z,28.55
2018-02-25T10:48:54.227Z,28.37
2018-02-25T10:49:54.244Z,27.81
2018-02-25T10:50:54.313Z,27.81
2018-02-25T10:51:54.425Z,27.63
2018-02-25T10:52:54.547Z,26.97
2018-02-25T10:53:54.583Z,26.68
2018-02-25T10:54:54.944Z,26.87
2018-02-25T10:55:54.905Z,27.15
2018-02-25T10:56:55.092Z,27.25
2018-02-25T10:57:55.240Z,27.44
2018-02-25T10:58:55.658Z,27.05
2018-02-25T10:59:55.728Z,27.25
2018-02-25T11:00:55.826Z,27.15
2018-02-25T11:01:55.729Z,27.05
2018-02-25T11:02:55.846Z,27.16
2018-02-25T11:03:56.406Z,26.65
2018-02-25T11:04:56.305Z,27.3
2018-02-25T11:05:56.261Z,27.75
2018-02-25T11:06:56.290Z,28.23
2018-02-25T11:07:56.321Z,28.34
2018-02-25T11:08:56.508Z,27.94
2018-02-25T11:09:56.921Z,28.01
2018-02-25T11:10:57.026Z,28.76
2018-02-25T11:11:57.026Z,29.7
2018-02-25T11:12:56.792Z,29.77
2018-02-25T11:13:57.107Z,30.23
2018-02-25T11:14:57.449Z,30.98
2018-02-25T11:15:57.903Z,31.55
2018-02-25T11:16:57.979Z,31.63
2018-02-25T11:17:58.949Z,31.74
2018-02-25T11:18:58.472Z,31.85
2018-02-25T11:19:58.783Z,31.37
2018-02-25T11:20:58.819Z,31.09
2018-02-25T11:21:58.878Z,31.95
2018-02-25T11:22:59.250Z,32.23
2018-02-25T11:23:59.309Z,31.87
2018-02-25T11:24:59.680Z,31.77
2018-02-25T11:25:59.805Z,31.51
2018-02-25T11:27:02.773Z,30.77
2018-02-25T11:27:59.789Z,30.69
2018-02-25T11:28:59.799Z,30.11
2018-02-25T11:30:00.371Z,29.36
2018-02-25T11:31:00.061Z,28.98
2018-02-25T11:32:00.394Z,29.19
2018-02-25T11:33:01.541Z,28.81
2018-02-25T11:34:01.179Z,29.01
2018-02-25T11:35:01.242Z,28.34
2018-02-25T11:36:01.226Z,28.44
2018-02-25T11:37:01.271Z,28.9
2018-02-25T11:38:01.261Z,29.28
2018-02-25T11:39:01.543Z,28.88
2018-02-25T11:40:01.379Z,29.44
2018-02-25T11:41:01.432Z,29.72
2018-02-25T11:42:01.555Z,30.37
2018-02-25T11:43:01.576Z,30.83
2018-02-25T11:44:01.311Z,31.36
2018-02-25T11:45:02.787Z,32.29
2018-02-25T11:46:02.083Z,33.15
2018-02-25T11:47:01.948Z,32.77
2018-02-25T11:48:01.720Z,33.53
2018-02-25T11:49:01.983Z,33.63
2018-02-25T11:50:02.278Z,34.58
2018-02-25T11:51:02.060Z,34.2
2018-02-25T11:52:01.845Z,34.09
2018-02-25T11:53:02.119Z,34.97
2018-02-25T11:54:01.864Z,36.85
2018-02-25T11:55:01.916Z,37.52
2018-02-25T11:56:01.946Z,37.61
2018-02-25T11:57:02.211Z,38.29
2018-02-25T11:58:02.243Z,38.1
2018-02-25T11:59:02.264Z,38.58
2018-02-25T12:01:03.888Z,39.13
2018-02-25T12:02:03.126Z,39.98
2018-02-25T12:03:02.381Z,40.08
2018-02-25T12:04:02.811Z,40.63
2018-02-25T12:05:02.865Z,40.92
2018-02-25T12:06:02.883Z,41.37
2018-02-25T12:07:03.096Z,41.82
2018-02-25T12:08:03.137Z,42.11
2018-02-25T12:09:03.066Z,42.11
2018-02-25T12:10:03.766Z,42.2
2018-02-25T12:11:03.235Z,42.01
2018-02-25T12:12:03.729Z,42.11
2018-02-25T12:13:04.221Z,42.56
2018-02-25T12:14:03.953Z,43.39
2018-02-25T12:15:05.646Z,44.15
2018-02-25T12:16:05.307Z,44.24
2018-02-25T12:17:05.763Z,44.89
2018-02-25T12:18:05.530Z,45.53
2018-02-25T12:19:06.155Z,46.94
2018-02-25T12:20:06.325Z,47.7
2018-02-25T12:21:07.745Z,48.65
2018-02-25T12:22:07.861Z,49.01
2018-02-25T12:23:07.759Z,49.38
2018-02-25T12:24:07.472Z,49.95
2018-02-25T12:25:08.279Z,50.33
2018-02-25T12:26:08.278Z,50.8
2018-02-25T12:27:08.268Z,51.75
2018-02-25T12:28:08.850Z,51.65
2018-02-25T12:29:08.544Z,52.22
2018-02-25T12:30:08.550Z,52.22
2018-02-25T12:31:08.874Z,52.1
2018-02-25T12:32:08.862Z,52.76
2018-02-25T12:33:09.103Z,53.33
2018-02-25T12:34:09.093Z,53.7
2018-02-25T12:35:09.124Z,53.96
2018-02-25T12:36:09.305Z,55
2018-02-25T12:37:09.345Z,55.19
2018-02-25T12:38:09.266Z,55.47
2018-02-25T12:39:09.708Z,55.57
2018-02-25T12:40:10.122Z,55.38
2018-02-25T12:41:10.204Z,55.29
2018-02-25T12:42:10.446Z,55.76
2018-02-25T12:43:10.002Z,55.98
2018-02-25T12:44:10.434Z,55.98
2018-02-25T12:45:10.274Z,56.35
2018-02-25T12:46:09.840Z,56.35
2018-02-25T12:47:10.472Z,56.45
2018-02-25T12:48:09.965Z,56.16
2018-02-25T12:49:10.296Z,55.79
2018-02-25T12:50:10.802Z,55.69
2018-02-25T12:51:09.678Z,55.5
2018-02-25T12:52:10.102Z,55.6
2018-02-25T12:53:10.086Z,55.5
2018-02-25T12:54:10.431Z,55.03
2018-02-25T12:55:10.876Z,54.74
2018-02-25T12:56:10.437Z,54.91
2018-02-25T12:57:10.253Z,54.91
2018-02-25T12:58:10.483Z,54.91